.
WxDataArchive / Data Records for 2006-06-10
2006-06-09 June 2006 2006-06-11

Data Records for Saturday, 10 June 2006

Time	Temp	Chill	HIndex	Humid	Dewpt	 Wind 	HiWind	WindDir	Rain 	Barom 
-----	----	-----	------	-----	-----	------	------	-------	-----	----- 
00:00	63.2	63.2	63.2	66	51.6	0	2	292	0.00	29.912 
00:05	63.1	63.1	63.1	65	51.1	0	1	292	0.00	29.912 
00:10	62.9	62.9	62.9	65	50.9	0	2	292	0.00	29.912 
00:15	62.7	62.7	62.7	65	50.8	0	2	292	0.00	29.900 
00:20	62.6	62.6	62.6	65	50.7	0	1	292	0.00	29.900 
00:25	62.4	62.4	62.4	64	50.1	0	1	292	0.00	29.900 
00:30	62.4	62.4	62.4	64	50.1	0	1	315	0.00	29.903 
00:35	62.3	62.3	62.3	65	50.4	0	2	315	0.00	29.903 
00:40	62.3	62.3	62.3	64	50.0	0	2	315	0.00	29.903 
00:45	62.1	62.1	62.1	64	49.8	0	1	315	0.00	29.907 
00:50	62.0	62.0	62.0	65	50.1	0	1	315	0.00	29.907 
00:55	61.8	61.8	61.8	64	49.5	0	2	338	0.00	29.907 
01:00	61.8	61.8	61.8	64	49.5	0	2	315	0.00	29.908 
01:05	61.6	61.6	61.6	63	48.9	0	2	315	0.00	29.908 
01:10	61.6	61.6	61.6	64	49.3	0	2	292	0.00	29.908 
01:15	61.5	61.5	61.5	64	49.2	0	2	292	0.00	29.898 
01:20	61.3	61.3	61.3	64	49.0	0	1	292	0.00	29.898 
01:25	61.3	61.3	61.3	64	49.0	0	1	292	0.00	29.898 
01:30	61.2	61.2	61.2	65	49.3	0	1	292	0.00	29.901 
01:35	61.2	61.2	61.2	65	49.3	0	1	292	0.00	29.901 
01:40	61.0	61.0	61.0	65	49.1	0	1	292	0.00	29.901 
01:45	61.0	61.0	61.0	66	49.6	0	1	292	0.00	29.905 
01:50	61.0	61.0	61.0	66	49.6	0	0	---	0.00	29.905 
01:55	60.9	60.9	60.9	67	49.9	0	2	315	0.00	29.905 
02:00	60.9	60.9	60.9	67	49.9	1	3	22	0.00	29.901 
02:05	60.9	60.9	60.9	68	50.3	0	0	---	0.00	29.901 
02:10	60.7	60.7	60.7	69	50.5	0	0	---	0.00	29.901 
02:15	60.5	60.5	60.5	69	50.3	0	0	---	0.00	29.896 
02:20	60.5	60.5	60.5	70	50.7	0	0	---	0.00	29.896 
02:25	60.4	60.4	60.4	70	50.6	0	0	---	0.00	29.896 
02:30	60.4	60.4	60.4	71	50.9	0	0	---	0.00	29.892 
02:35	60.4	60.4	60.4	71	50.9	0	0	---	0.00	29.892 
02:40	60.4	60.4	60.4	70	50.6	0	0	---	0.00	29.892 
02:45	60.2	60.2	60.2	71	50.8	0	0	---	0.00	29.892 
02:50	60.2	60.2	60.2	72	51.1	0	0	---	0.00	29.892 
02:55	60.2	60.2	60.2	72	51.1	0	0	---	0.00	29.892 
03:00	60.1	60.1	60.1	72	51.0	0	0	---	0.00	29.894 
03:05	60.1	60.1	60.1	74	51.8	0	0	---	0.00	29.894 
03:10	59.6	59.6	59.6	76	52.0	0	0	---	0.00	29.894 
03:15	59.5	59.5	59.5	79	53.0	0	0	---	0.00	29.892 
03:20	59.2	59.2	59.2	81	53.4	0	1	22	0.00	29.892 
03:25	59.2	59.2	59.2	81	53.4	0	1	22	0.00	29.892 
03:30	59.2	59.2	59.2	81	53.4	0	2	45	0.00	29.901 
03:35	59.3	59.3	59.3	81	53.5	2	6	68	0.00	29.901 
03:40	59.3	59.3	59.3	78	52.4	3	6	90	0.00	29.901 
03:45	59.3	59.3	59.3	78	52.4	3	10	90	0.00	29.903 
03:50	59.3	59.3	59.3	77	52.1	4	9	90	0.00	29.903 
03:55	59.2	59.2	59.2	78	52.3	2	6	90	0.00	29.903 
04:00	59.2	59.2	59.2	78	52.3	3	5	90	0.00	29.898 
04:05	59.0	59.0	59.0	76	51.4	3	9	90	0.00	29.898 
04:10	59.0	59.0	59.0	75	51.1	4	7	90	0.00	29.898 
04:15	58.9	58.9	58.9	75	51.0	4	8	90	0.00	29.898 
04:20	58.6	58.6	58.6	75	50.7	3	10	90	0.00	29.898 
04:25	58.4	58.4	58.4	76	50.9	3	9	90	0.00	29.898 
04:30	58.3	58.3	58.3	77	51.1	3	6	90	0.00	29.903 
04:35	58.3	58.3	58.3	76	50.8	2	7	90	0.00	29.903 
04:40	58.1	58.1	58.1	76	50.6	2	5	90	0.00	29.903 
04:45	58.0	58.0	58.0	75	50.1	2	6	112	0.00	29.903 
04:50	58.0	58.0	58.0	76	50.5	1	5	112	0.00	29.903 
04:55	58.0	58.0	58.0	74	49.8	3	6	90	0.00	29.903 
05:00	57.8	57.8	57.8	74	49.6	2	5	90	0.00	29.907 
05:05	57.8	57.8	57.8	73	49.2	3	5	90	0.00	29.907 
05:10	57.6	57.6	57.6	73	49.0	3	6	90	0.00	29.907 
05:15	57.6	57.6	57.6	73	49.0	3	8	90	0.00	29.906 
05:20	57.6	57.6	57.6	74	49.4	3	6	90	0.00	29.906 
05:25	57.5	57.5	57.5	74	49.3	2	6	90	0.00	29.906 
05:30	57.5	57.5	57.5	74	49.3	2	5	90	0.00	29.906 
05:35	57.5	57.5	57.5	75	49.6	1	5	90	0.00	29.906 
05:40	57.5	57.5	57.5	75	49.6	1	3	112	0.00	29.906 
05:45	57.5	57.5	57.5	74	49.3	2	5	112	0.00	29.903 
05:50	57.5	57.5	57.5	74	49.3	2	5	112	0.00	29.903 
05:55	57.3	57.3	57.3	74	49.1	1	4	112	0.00	29.903 
06:00	57.3	57.3	57.3	74	49.1	2	3	90	0.00	29.905 
06:05	57.3	57.3	57.3	74	49.1	2	4	90	0.00	29.905 
06:10	57.3	57.3	57.3	75	49.4	1	3	68	0.00	29.905 
06:15	57.3	57.3	57.3	75	49.4	2	5	90	0.00	29.909 
06:20	57.3	57.3	57.3	75	49.4	2	4	90	0.00	29.909 
06:25	57.3	57.3	57.3	75	49.4	1	3	90	0.00	29.909 
06:30	57.3	57.3	57.3	75	49.4	1	4	90	0.00	29.909 
06:35	57.3	57.3	57.3	76	49.8	1	3	90	0.00	29.909 
06:40	57.3	57.3	57.3	75	49.4	1	2	90	0.00	29.909 
06:45	57.3	57.3	57.3	75	49.4	1	3	90	0.00	29.922 
06:50	57.3	57.3	57.3	76	49.8	1	2	90	0.00	29.922 
06:55	57.3	57.3	57.3	76	49.8	1	3	90	0.00	29.922 
07:00	57.2	57.2	57.2	77	50.1	1	3	90	0.00	29.928 
07:05	57.0	57.0	57.0	79	50.5	0	1	90	0.01	29.928 
07:10	56.9	56.9	56.9	81	51.1	0	2	90	0.00	29.928 
07:15	56.6	56.6	56.6	81	50.8	1	2	90	0.00	29.928 
07:20	56.5	56.5	56.5	82	51.1	1	2	90	0.00	29.928 
07:25	56.3	56.3	56.3	82	50.9	1	2	90	0.00	29.928 
07:30	56.2	56.2	56.2	82	50.8	1	2	90	0.00	29.926 
07:35	56.0	56.0	56.0	83	50.9	1	2	90	0.00	29.926 
07:40	56.0	56.0	56.0	84	51.2	1	2	90	0.00	29.926 
07:45	56.0	56.0	56.0	82	50.6	1	3	90	0.00	29.927 
07:50	56.0	56.0	56.0	82	50.6	1	3	90	0.00	29.927 
07:55	56.0	56.0	56.0	82	50.6	1	2	90	0.01	29.927 
08:00	56.0	56.0	56.0	84	51.2	0	2	90	0.00	29.941 
08:05	55.9	55.9	55.9	84	51.1	0	1	90	0.00	29.941 
08:10	55.9	55.9	55.9	85	51.5	0	1	90	0.00	29.941 
08:15	55.7	55.7	55.7	84	50.9	0	2	90	0.00	29.954 
08:20	55.6	55.6	55.6	84	50.8	0	2	90	0.01	29.954 
08:25	55.6	55.6	55.6	85	51.2	0	1	90	0.00	29.954 
08:30	55.4	55.4	55.4	86	51.3	0	3	90	0.01	29.951 
08:35	55.4	55.4	55.4	86	51.3	0	1	90	0.01	29.951 
08:40	55.3	55.3	55.3	87	51.5	0	0	---	0.01	29.951 
08:45	55.3	55.3	55.3	89	52.1	0	0	---	0.00	29.957 
08:50	55.1	55.1	55.1	87	51.3	1	2	90	0.01	29.957 
08:55	54.8	54.8	54.8	88	51.3	0	1	90	0.01	29.957 
09:00	54.7	54.7	54.7	88	51.2	0	2	90	0.00	29.960 
09:05	54.5	54.5	54.5	88	51.0	1	2	90	0.00	29.960 
09:10	54.5	54.5	54.5	88	51.0	0	2	90	0.01	29.960 
09:15	54.5	54.5	54.5	88	51.0	0	0	---	0.00	29.967 
09:20	54.4	54.4	54.4	89	51.2	0	0	---	0.01	29.967 
09:25	54.4	54.4	54.4	88	50.9	0	0	---	0.01	29.967 
09:30	54.1	54.1	54.1	87	50.3	0	0	---	0.00	29.979 
09:35	53.8	53.8	53.8	88	50.3	0	0	---	0.01	29.979 
09:40	53.8	53.8	53.8	88	50.3	0	0	---	0.01	29.979 
09:45	53.6	53.6	53.6	89	50.4	0	0	---	0.01	29.978 
09:50	53.6	53.6	53.6	89	50.4	0	0	---	0.01	29.978 
09:55	53.6	53.6	53.6	90	50.7	0	2	90	0.01	29.978 
10:00	53.8	53.8	53.8	90	50.9	0	1	90	0.00	29.967 
10:05	53.8	53.8	53.8	90	50.9	0	1	90	0.01	29.967 
10:10	53.6	53.6	53.6	89	50.4	1	2	90	0.00	29.967 
10:15	53.5	53.5	53.5	88	50.0	1	2	90	0.00	29.964 
10:20	53.5	53.5	53.5	89	50.3	0	2	90	0.00	29.964 
10:25	53.3	53.3	53.3	88	49.8	1	3	90	0.01	29.964 
10:30	53.3	53.3	53.3	88	49.8	0	3	90	0.00	29.956 
10:35	53.5	53.5	53.5	89	50.3	0	1	90	0.00	29.956 
10:40	53.8	53.8	53.8	89	50.6	1	3	90	0.00	29.956 
10:45	54.1	54.1	54.1	88	50.6	0	2	90	0.00	29.954 
10:50	54.4	54.4	54.4	89	51.2	0	1	90	0.00	29.954 
10:55	54.5	54.5	54.5	89	51.3	0	2	90	0.00	29.954 
11:00	54.7	54.7	54.7	88	51.2	1	2	90	0.00	29.946 
11:05	54.8	54.8	54.8	88	51.3	1	3	90	0.00	29.946 
11:10	55.0	55.0	55.0	88	51.5	1	3	90	0.00	29.946 
11:15	55.3	55.3	55.3	89	52.1	1	2	90	0.00	29.943 
11:20	55.4	55.4	55.4	88	51.9	1	2	90	0.00	29.943 
11:25	55.6	55.6	55.6	87	51.8	1	4	90	0.00	29.943 
11:30	55.6	55.6	55.6	88	52.1	1	2	90	0.00	29.952 
11:35	55.7	55.7	55.7	87	51.9	1	4	68	0.00	29.952 
11:40	55.6	55.6	55.6	87	51.8	1	3	68	0.00	29.952 
11:45	55.7	55.7	55.7	86	51.6	1	2	68	0.00	29.954 
11:50	55.7	55.7	55.7	85	51.3	1	2	68	0.00	29.954 
11:55	55.9	55.9	55.9	85	51.5	1	2	68	0.00	29.954 
12:00	55.9	55.9	55.9	86	51.8	0	1	68	0.00	29.956 
12:05	56.0	56.0	56.0	83	50.9	1	2	68	0.00	29.956 
12:10	56.2	56.2	56.2	84	51.4	0	2	68	0.00	29.956 
12:15	56.3	56.3	56.3	83	51.2	1	2	68	0.00	29.952 
12:20	56.3	56.3	56.3	83	51.2	1	3	68	0.00	29.952 
12:25	56.3	56.3	56.3	84	51.5	1	2	68	0.00	29.952 
12:30	56.5	56.5	56.5	84	51.7	0	1	68	0.00	29.954 
12:35	56.6	56.6	56.6	83	51.5	0	2	68	0.00	29.954 
12:40	57.0	57.0	57.0	83	51.9	0	2	68	0.00	29.954 
12:45	57.2	57.2	57.2	80	51.1	0	2	90	0.00	29.951 
12:50	57.5	57.5	57.5	82	52.0	1	3	90	0.00	29.951 
12:55	58.1	58.1	58.1	81	52.3	1	3	90	0.00	29.951 
13:00	58.6	58.6	58.6	77	51.4	1	5	90	0.00	29.943 
13:05	59.2	59.2	59.2	81	53.4	1	3	90	0.00	29.943 
13:10	59.3	59.3	59.3	77	52.1	1	4	90	0.00	29.943 
13:15	59.2	59.2	59.2	76	51.6	1	5	90	0.00	29.947 
13:20	59.5	59.5	59.5	77	52.3	1	5	112	0.00	29.947 
13:25	59.8	59.8	59.8	73	51.1	1	3	90	0.00	29.947 
13:30	59.9	59.9	59.9	72	50.8	1	2	90	0.00	29.945 
13:35	60.1	60.1	60.1	73	51.4	1	3	135	0.00	29.945 
13:40	60.2	60.2	60.2	71	50.8	2	5	112	0.00	29.945 
13:45	60.4	60.4	60.4	69	50.2	2	7	112	0.00	29.935 
13:50	60.2	60.2	60.2	71	50.8	2	5	90	0.00	29.935 
13:55	60.4	60.4	60.4	72	51.3	1	3	90	0.00	29.935 
14:00	60.7	60.7	60.7	69	50.5	1	3	90	0.00	29.931 
14:05	61.0	61.0	61.0	69	50.8	1	4	112	0.00	29.931 
14:10	61.0	61.0	61.0	70	51.1	1	4	112	0.00	29.931 
14:15	61.3	61.3	61.3	69	51.0	2	4	90	0.00	29.928 
14:20	61.5	61.5	61.5	66	50.0	2	5	90	0.00	29.928 
14:25	61.6	61.6	61.6	67	50.5	1	3	90	0.00	29.928 
14:30	62.0	62.0	62.0	69	51.7	1	3	90	0.00	29.930 
14:35	62.1	62.1	62.1	67	51.0	1	2	90	0.00	29.930 
14:40	62.4	62.4	62.4	66	50.9	1	3	248	0.00	29.930 
14:45	62.7	62.7	62.7	71	53.2	2	5	90	0.00	29.929 
14:50	63.1	63.1	63.1	68	52.4	2	3	112	0.00	29.929 
14:55	63.7	63.7	63.7	65	51.7	1	3	112	0.00	29.929 
15:00	63.9	63.9	63.9	63	51.1	1	4	90	0.00	29.928 
15:05	63.7	63.7	63.7	67	52.5	1	5	112	0.00	29.928 
15:10	64.0	64.0	64.0	64	51.6	1	3	0	0.00	29.928 
15:15	64.7	64.7	64.7	65	52.7	1	3	112	0.00	29.925 
15:20	65.2	65.2	65.2	61	51.4	1	3	270	0.00	29.925 
15:25	65.2	65.2	65.2	60	51.0	0	2	270	0.00	29.925 
15:30	64.5	64.5	64.5	59	49.8	1	3	292	0.00	29.919 
15:35	64.3	64.3	64.3	62	51.0	0	1	292	0.00	29.919 
15:40	64.0	64.0	64.0	62	50.7	1	3	22	0.00	29.919 
15:45	63.9	63.9	63.9	64	51.5	1	4	90	0.00	29.914 
15:50	64.5	64.5	64.5	63	51.6	1	3	90	0.00	29.914 
15:55	65.5	65.5	65.5	63	52.6	1	2	90	0.00	29.914 
16:00	65.5	65.5	65.5	61	51.7	2	5	90	0.00	29.909 
16:05	64.7	64.7	64.7	62	51.4	1	4	90	0.00	29.909 
16:10	64.0	64.0	64.0	60	49.8	2	4	90	0.00	29.909 
16:15	64.2	64.2	64.2	62	50.9	1	3	90	0.00	29.902 
16:20	64.7	64.7	64.7	63	51.8	1	3	90	0.00	29.902 
16:25	65.2	65.2	65.2	63	52.3	1	4	270	0.00	29.902 
16:30	65.6	65.6	65.6	59	50.9	1	3	112	0.00	29.895 
16:35	66.0	66.0	66.0	63	53.0	0	4	112	0.00	29.895 
16:40	65.8	65.8	65.8	59	51.1	1	3	112	0.00	29.895 
16:45	65.3	65.3	65.3	61	51.5	1	3	112	0.00	29.890 
16:50	65.2	65.2	65.2	64	52.7	1	3	112	0.00	29.890 
16:55	65.6	65.6	65.6	61	51.8	1	4	90	0.00	29.890 
17:00	65.8	65.8	65.8	59	51.1	0	2	90	0.00	29.884 
17:05	66.0	66.0	66.0	60	51.7	1	3	270	0.00	29.884 
17:10	65.6	65.6	65.6	61	51.8	2	5	68	0.00	29.884 
17:15	65.8	65.8	65.8	60	51.5	1	3	68	0.00	29.883 
17:20	66.0	66.0	66.0	61	52.2	1	3	270	0.00	29.883 
17:25	66.3	66.3	66.3	58	51.1	1	2	225	0.00	29.883 
17:30	66.3	66.3	66.3	59	51.5	1	3	112	0.00	29.881 
17:35	66.1	66.1	66.1	58	50.9	1	3	112	0.00	29.881 
17:40	66.0	66.0	66.0	58	50.8	1	4	225	0.00	29.881 
17:45	66.0	66.0	66.0	59	51.3	1	3	90	0.00	29.871 
17:50	66.1	66.1	66.1	58	50.9	0	2	90	0.00	29.871 
17:55	66.1	66.1	66.1	59	51.3	1	3	90	0.00	29.871 
18:00	66.0	66.0	66.0	61	52.2	1	4	112	0.00	29.870 
18:05	66.0	66.0	66.0	60	51.7	1	3	112	0.00	29.870 
18:10	66.0	66.0	66.0	60	51.7	0	1	112	0.00	29.870 
18:15	66.6	66.6	66.6	54	49.4	1	2	112	0.00	29.870 
18:20	66.6	66.6	66.6	56	50.4	1	2	112	0.00	29.870 
18:25	66.4	66.4	66.4	57	50.7	0	2	112	0.00	29.870 
18:30	66.1	66.1	66.1	58	50.9	0	2	112	0.00	29.868 
18:35	65.6	65.6	65.6	57	49.9	1	4	112	0.00	29.868 
18:40	65.5	65.5	65.5	58	50.3	0	3	90	0.00	29.868 
18:45	65.5	65.5	65.5	58	50.3	1	2	90	0.00	29.869 
18:50	65.3	65.3	65.3	58	50.1	1	2	90	0.00	29.869 
18:55	65.3	65.3	65.3	56	49.2	0	1	90	0.00	29.869 
19:00	65.2	65.2	65.2	58	50.0	0	1	90	0.00	29.868 
19:05	65.2	65.2	65.2	58	50.0	0	1	90	0.00	29.868 
19:10	65.0	65.0	65.0	59	50.3	0	1	90	0.00	29.868 
19:15	64.8	64.8	64.8	60	50.6	0	1	90	0.00	29.868 
19:20	64.8	64.8	64.8	59	50.1	0	1	90	0.00	29.868 
19:25	64.7	64.7	64.7	64	52.2	0	2	90	0.00	29.868 
19:30	64.5	64.5	64.5	65	52.5	1	2	90	0.00	29.870 
19:35	64.5	64.5	64.5	66	52.9	0	1	90	0.00	29.870 
19:40	64.3	64.3	64.3	65	52.3	0	1	90	0.00	29.870 
19:45	64.3	64.3	64.3	65	52.3	0	1	90	0.00	29.869 
19:50	64.2	64.2	64.2	65	52.2	0	1	90	0.00	29.869 
19:55	64.0	64.0	64.0	64	51.6	0	0	---	0.00	29.869 
20:00	63.9	63.9	63.9	66	52.3	0	0	---	0.00	29.869 
20:05	63.7	63.7	63.7	67	52.5	0	0	---	0.00	29.869 
20:10	63.7	63.7	63.7	69	53.3	0	0	---	0.00	29.869 
20:15	63.5	63.5	63.5	67	52.3	0	2	90	0.00	29.869 
20:20	63.4	63.4	63.4	68	52.6	0	1	90	0.00	29.869 
20:25	63.2	63.2	63.2	68	52.5	0	2	90	0.00	29.869 
20:30	63.1	63.1	63.1	68	52.4	0	1	90	0.00	29.873 
20:35	62.9	62.9	62.9	69	52.6	0	1	90	0.00	29.873 
20:40	62.7	62.7	62.7	69	52.4	0	0	---	0.00	29.873 
20:45	62.6	62.6	62.6	70	52.7	0	0	---	0.00	29.874 
20:50	62.3	62.3	62.3	71	52.8	0	0	---	0.00	29.874 
20:55	62.0	62.0	62.0	71	52.5	0	0	---	0.00	29.874 
21:00	61.6	61.6	61.6	72	52.5	0	0	---	0.00	29.872 
21:05	61.2	61.2	61.2	73	52.5	0	0	---	0.00	29.872 
21:10	60.9	60.9	60.9	74	52.6	0	0	---	0.00	29.872 
21:15	60.5	60.5	60.5	74	52.2	0	0	---	0.00	29.872 
21:20	60.1	60.1	60.1	75	52.1	0	0	---	0.00	29.872 
21:25	59.8	59.8	59.8	77	52.6	0	0	---	0.00	29.872 
21:30	59.2	59.2	59.2	78	52.3	0	0	---	0.00	29.874 
21:35	58.7	58.7	58.7	79	52.2	0	0	---	0.00	29.874 
21:40	58.3	58.3	58.3	81	52.5	0	0	---	0.00	29.874 
21:45	58.0	58.0	58.0	81	52.2	0	0	---	0.00	29.878 
21:50	57.6	57.6	57.6	82	52.1	0	0	---	0.00	29.878 
21:55	57.3	57.3	57.3	83	52.2	0	0	---	0.00	29.878 
22:00	57.0	57.0	57.0	84	52.2	0	0	---	0.00	29.883 
22:05	56.7	56.7	56.7	85	52.2	0	0	---	0.00	29.883 
22:10	56.5	56.5	56.5	86	52.4	0	0	---	0.00	29.883 
22:15	56.3	56.3	56.3	87	52.5	0	0	---	0.00	29.891 
22:20	56.2	56.2	56.2	87	52.4	0	0	---	0.00	29.891 
22:25	55.9	55.9	55.9	87	52.1	0	0	---	0.00	29.891 
22:30	55.7	55.7	55.7	88	52.2	0	0	---	0.00	29.895 
22:35	55.7	55.7	55.7	88	52.2	0	0	---	0.00	29.895 
22:40	55.6	55.6	55.6	88	52.1	0	0	---	0.00	29.895 
22:45	55.4	55.4	55.4	89	52.2	0	0	---	0.00	29.893 
22:50	55.3	55.3	55.3	89	52.1	0	0	---	0.00	29.893 
22:55	55.1	55.1	55.1	89	51.9	0	0	---	0.00	29.893 
23:00	55.0	55.0	55.0	90	52.1	0	0	---	0.00	29.899 
23:05	54.8	54.8	54.8	90	51.9	0	0	---	0.00	29.899 
23:10	54.7	54.7	54.7	90	51.8	0	0	---	0.00	29.899 
23:15	54.5	54.5	54.5	90	51.6	0	0	---	0.00	29.899 
23:20	54.4	54.4	54.4	90	51.5	0	0	---	0.00	29.899 
23:25	54.2	54.2	54.2	90	51.3	0	0	---	0.00	29.899 
23:30	54.1	54.1	54.1	91	51.5	0	0	---	0.00	29.897 
23:35	53.9	53.9	53.9	91	51.3	0	0	---	0.00	29.897 
23:40	53.9	53.9	53.9	91	51.3	0	0	---	0.00	29.897 
23:45	53.8	53.8	53.8	91	51.2	0	0	---	0.00	29.894 
23:50	53.6	53.6	53.6	92	51.3	0	0	---	0.00	29.894 
23:55	53.6	53.6	53.6	92	51.3	0	0	---	0.00	29.894 

CoCoRaHS
IN-AL-39
A2 Web Hosting
Creative Commons License
GoDaddy
Look for:

loaded 2017-10-17 09:32:15 • last modified 2010-11-18 10:43:29
Privacy PolicyDisclaimer
• wx.awcolley.com is powered by PmWiki v.2002016 •
• all content (unless otherwise noted) © 2017 A W Colley